Portada
METAR-TAF:

METAR-TAF

Aeropuertos :

Aeropuerto Internacional Reina Beatrix

Aruba, Aruba

latitud: 12-30N, longitud: 070-01W, altitud: 18 m

Observación

El informe se hizo hace 49 minutos, a las 16:00 UTC
Viento 14 kt del este
Temperatura 30°C
Humedad 66%
Presión 1014 hPa
Visibilidad 10 km o más
Cielo nuboso a una altura de 2500 ft

METAR: TNCA 111600Z 08014KT 9999 BKN025 30/23 Q1014 NOSIG

Hora: 12:49 (16:49 UTC)

Pronóstico

El informe se hizo hace 5 horas y 34 minutos, a las 11:15 UTC
Pronóstico válido del 11 a las 12 UTC al 12 a las 12 UTC
Viento 18 kt del este
Visibilidad 10 km o más
Nubes dispersas a una altura de 2000 ft
Probabilidad 30% :
Temporalmente
del 11 a las 12 UTC al 12 a las 12 UTC
Visibilidad: 5000 m
Cielo nuboso a una altura de 1500 ft
chaparrones de lluvia

TAF: TNCA 111115Z 1112/1212 08018KT 9999 SCT020 PROB30 TEMPO 1112/1212 5000 SHRA BKN015

Observaciones y pronósticos meteorológicos de más de 4000 aeropuertos (mensajes METAR y TAF).

Los puntos amarillos y rojos representan las estaciones disponibles.

Ponga el ratón en el punto deseado para ver el nombre de la estación.

Haga clic para ver las observaciones y los pronósticos meteorológicos.

Para cambiar el mapa : haga clic en los botones verdes con una cruz de color negro para hacer un zoom, en el botón verde con un guión para alejar o en las flechas verdes para mapas adyacentes.


METAR-TAF: